Time;durP1;ratioP1;P1;durP2;ratioP2;P2;SDS_P1;SDS_P2;PMS_P1;PMS_P2;Temp;Humidity;BMP_temperature;BMP_pressure;BME280_temperature;BME280_humidity;BME280_pressure;Samples;Min_cycle;Max_cycle;Signal;HPM_P1;HPM_P2
2021/11/04 00:00:43;;;;;;;1.93;1.83;;;;;;;4.41;94.37;93973.56;5071974;28;20246;-80
2021/11/04 00:03:09;;;;;;;1.83;1.73;;;;;;;4.39;94.71;93987.53;5071843;28;20169;-80
2021/11/04 00:05:35;;;;;;;2.00;1.80;;;;;;;4.37;94.95;93995.41;5072190;28;20189;-81
2021/11/04 00:08:03;;;;;;;1.70;1.60;;;;;;;4.41;94.81;94006.19;5081529;28;20184;-80
2021/11/04 00:10:29;;;;;;;2.10;1.90;;;;;;;4.38;94.68;94024.47;5074992;28;20207;-80
2021/11/04 00:12:55;;;;;;;2.70;1.50;;;;;;;4.39;94.36;94014.03;5074529;28;20180;-80
2021/11/04 00:15:20;;;;;;;2.13;1.87;;;;;;;4.41;94.75;94022.41;5081451;28;20272;-81
2021/11/04 00:17:47;;;;;;;3.07;1.63;;;;;;;4.45;95.00;94030.66;5083630;28;20203;-81
2021/11/04 00:20:14;;;;;;;1.90;1.60;;;;;;;4.47;94.91;94031.31;5072273;28;20676;-80
2021/11/04 00:22:39;;;;;;;2.00;1.80;;;;;;;4.44;95.20;94031.63;5070807;28;20707;-80
2021/11/04 00:25:06;;;;;;;2.40;2.20;;;;;;;4.49;95.35;94025.06;5070842;28;20189;-80
2021/11/04 00:27:31;;;;;;;2.00;1.90;;;;;;;4.52;95.48;94022.22;5081999;28;20204;-81
2021/11/04 00:29:56;;;;;;;2.57;2.37;;;;;;;4.53;95.58;94010.16;5090994;28;20228;-82
2021/11/04 00:32:22;;;;;;;3.47;2.20;;;;;;;4.52;95.55;94009.34;5074077;28;20176;-81
2021/11/04 00:34:47;;;;;;;2.20;2.00;;;;;;;4.51;95.37;94005.16;5073224;28;20216;-81
2021/11/04 00:37:12;;;;;;;2.63;2.43;;;;;;;4.61;94.95;94007.66;5061722;28;20199;-81
2021/11/04 00:39:38;;;;;;;2.80;2.43;;;;;;;4.57;95.02;93984.94;5090758;28;20216;-80
2021/11/04 00:42:03;;;;;;;12.30;3.33;;;;;;;4.47;95.50;93974.75;5073965;28;20177;-80
2021/11/04 00:44:29;;;;;;;18.43;4.13;;;;;;;4.36;95.98;93978.38;5090447;28;20172;-80
2021/11/04 00:46:54;;;;;;;5.23;2.70;;;;;;;4.25;95.72;93981.97;5081331;28;20185;-81
2021/11/04 00:49:19;;;;;;;2.40;2.20;;;;;;;4.09;95.38;94002.38;5068468;28;20205;-81
2021/11/04 00:51:45;;;;;;;2.50;2.30;;;;;;;4.06;95.72;94012.13;5053824;28;20205;-81
2021/11/04 00:54:10;;;;;;;2.80;1.70;;;;;;;4.01;95.45;94012.56;5052084;28;20287;-80
2021/11/04 00:56:35;;;;;;;2.57;2.10;;;;;;;4.03;95.60;94025.25;5070897;28;20181;-80
2021/11/04 00:59:00;;;;;;;2.60;2.40;;;;;;;3.98;95.20;94036.00;5061829;28;20228;-80
2021/11/04 01:01:26;;;;;;;1.77;1.67;;;;;;;3.83;95.27;94032.28;5069343;28;20210;-80
2021/11/04 01:03:52;;;;;;;1.73;1.63;;;;;;;3.78;95.43;94037.03;5069957;28;20631;-80
2021/11/04 01:06:20;;;;;;;2.20;2.00;;;;;;;3.87;95.49;94042.09;5070325;28;20173;-80
2021/11/04 01:08:46;;;;;;;1.77;1.67;;;;;;;3.88;95.01;94054.00;5076620;28;20221;-80
2021/11/04 01:11:12;;;;;;;1.73;1.63;;;;;;;3.91;95.19;94056.28;5087069;28;20174;-80
2021/11/04 01:13:38;;;;;;;1.50;1.40;;;;;;;3.80;94.83;94060.78;5089895;28;20690;-80
2021/11/04 01:16:04;;;;;;;1.23;1.13;;;;;;;3.71;94.55;94062.50;5073204;28;20261;-80
2021/11/04 01:18:29;;;;;;;1.10;1.10;;;;;;;3.72;94.48;94047.88;5084693;28;20197;-80
2021/11/04 01:20:54;;;;;;;1.33;1.00;;;;;;;3.77;94.42;94067.03;5079028;28;20212;-80
2021/11/04 01:23:19;;;;;;;1.20;1.10;;;;;;;3.70;94.56;94064.22;5054536;28;20669;-80
2021/11/04 01:25:45;;;;;;;0.80;0.80;;;;;;;3.64;93.46;94053.72;5070301;28;20648;-81
2021/11/04 01:28:10;;;;;;;0.87;0.87;;;;;;;3.60;93.63;94058.31;5054537;28;20187;-81
2021/11/04 01:30:37;;;;;;;0.70;0.70;;;;;;;3.68;93.39;94045.59;5066940;28;20628;-80
2021/11/04 01:33:03;;;;;;;1.07;0.80;;;;;;;3.62;92.88;94048.75;5073840;28;20665;-80
2021/11/04 01:35:31;;;;;;;2.30;0.63;;;;;;;3.63;93.18;94040.09;5053051;28;20280;-80
2021/11/04 01:37:56;;;;;;;0.77;0.70;;;;;;;3.60;92.95;94031.84;5054613;28;20192;-80
2021/11/04 01:40:22;;;;;;;0.80;0.80;;;;;;;3.51;92.87;94036.06;5072302;28;20201;-80
2021/11/04 01:42:47;;;;;;;1.10;1.00;;;;;;;3.60;93.09;94030.09;5077953;28;20185;-80
2021/11/04 01:45:12;;;;;;;0.77;0.77;;;;;;;3.67;93.17;94032.91;5052875;28;20195;-81
2021/11/04 01:47:41;;;;;;;1.00;0.90;;;;;;;3.64;92.66;94022.94;5070223;28;20210;-82
2021/11/04 01:50:06;;;;;;;0.90;0.90;;;;;;;3.60;92.44;94024.94;5070813;28;20222;-81
2021/11/04 01:52:32;;;;;;;0.93;0.90;;;;;;;3.59;92.56;94009.69;5072830;28;20176;-82
2021/11/04 01:54:57;;;;;;;1.53;0.70;;;;;;;3.54;92.29;94012.72;5073138;28;20204;-80
2021/11/04 01:57:22;;;;;;;0.73;0.70;;;;;;;3.59;92.46;94007.94;5090214;28;20176;-80
2021/11/04 01:59:48;;;;;;;0.80;0.80;;;;;;;3.63;92.16;94011.03;5090592;28;20199;-81
2021/11/04 02:02:19;;;;;;;0.90;0.80;;;;;;;3.62;92.07;94019.66;5079862;28;20280;-80
2021/11/04 02:04:50;;;;;;;0.57;0.57;;;;;;;3.60;91.81;94019.81;5069421;28;20173;-81
2021/11/04 02:07:23;;;;;;;0.70;0.70;;;;;;;3.62;91.13;94019.66;5073563;28;20243;-80
2021/11/04 02:09:58;;;;;;;0.60;0.60;;;;;;;3.56;91.18;94015.94;5075290;28;20559;-81
2021/11/04 02:12:33;;;;;;;0.87;0.80;;;;;;;3.57;91.38;94007.28;5057085;28;20257;-80
2021/11/04 02:14:59;;;;;;;1.00;0.90;;;;;;;3.50;91.93;94003.66;5070936;28;20204;-81
2021/11/04 02:17:25;;;;;;;1.47;0.90;;;;;;;3.49;91.96;94009.75;5061464;28;20180;-81
2021/11/04 02:19:57;;;;;;;0.73;0.73;;;;;;;3.48;92.37;94015.84;5079608;28;20272;-81
2021/11/04 02:22:28;;;;;;;1.20;1.10;;;;;;;3.50;92.51;94025.94;5056785;28;20583;-80
2021/11/04 02:25:06;;;;;;;0.80;0.80;;;;;;;3.46;91.72;94030.56;5072435;28;20683;-80
2021/11/04 02:27:31;;;;;;;0.77;0.77;;;;;;;3.47;92.49;94032.19;5073523;28;20268;-80
2021/11/04 02:29:56;;;;;;;0.90;0.90;;;;;;;3.51;92.13;94027.56;5073345;28;20622;-81
2021/11/04 02:32:23;;;;;;;1.77;1.10;;;;;;;3.43;91.56;94035.97;5073536;28;20603;-80
2021/11/04 02:34:48;;;;;;;1.30;1.10;;;;;;;3.50;91.48;94042.16;5055793;28;20625;-80
2021/11/04 02:37:14;;;;;;;1.20;0.90;;;;;;;3.48;91.92;94049.19;5079068;28;20245;-80
2021/11/04 02:39:39;;;;;;;1.17;1.10;;;;;;;3.52;92.14;94057.41;5065765;28;20653;-81
2021/11/04 02:42:06;;;;;;;1.20;1.07;;;;;;;3.39;92.11;94057.75;5073147;28;20668;-80
2021/11/04 02:44:32;;;;;;;0.90;0.90;;;;;;;3.42;92.22;94053.13;5072608;28;20184;-81
2021/11/04 02:46:57;;;;;;;1.00;1.00;;;;;;;3.41;92.44;94058.41;5073176;28;20177;-81
2021/11/04 02:49:26;;;;;;;1.13;1.03;;;;;;;3.46;92.54;94060.56;5073073;28;20219;-80
2021/11/04 02:51:53;;;;;;;1.37;1.10;;;;;;;3.45;92.39;94062.31;5073379;28;20177;-80
2021/11/04 02:54:18;;;;;;;1.03;0.93;;;;;;;3.39;92.68;94061.13;5072517;28;20252;-80
2021/11/04 02:56:49;;;;;;;2.10;1.10;;;;;;;3.45;92.91;94062.31;5055924;28;20169;-81
2021/11/04 02:59:16;;;;;;;1.53;1.20;;;;;;;3.42;92.33;94060.00;5073245;28;20186;-80
2021/11/04 03:01:45;;;;;;;1.37;1.13;;;;;;;3.42;92.23;94058.25;5073107;28;20204;-80
2021/11/04 03:04:11;;;;;;;1.40;1.30;;;;;;;3.44;92.36;94052.97;5081080;28;20659;-80
2021/11/04 03:06:37;;;;;;;1.20;1.10;;;;;;;3.43;91.97;94051.38;5072693;28;20179;-80
2021/11/04 03:09:03;;;;;;;1.20;1.03;;;;;;;3.46;92.19;94058.81;5056265;28;20196;-81
2021/11/04 03:11:29;;;;;;;1.27;1.17;;;;;;;3.44;91.63;94052.97;5072762;28;20207;-80
2021/11/04 03:13:54;;;;;;;1.53;1.00;;;;;;;3.40;91.15;94047.34;5055108;28;20212;-81
2021/11/04 03:16:20;;;;;;;1.10;1.00;;;;;;;3.40;91.17;94056.78;5053924;28;20232;-81
2021/11/04 03:18:46;;;;;;;1.37;1.00;;;;;;;3.42;91.09;94060.00;5055346;28;20620;-80
2021/11/04 03:21:12;;;;;;;2.87;1.00;;;;;;;3.35;90.97;94066.66;5072542;28;20260;-81
2021/11/04 03:23:37;;;;;;;1.10;1.10;;;;;;;3.37;90.90;94064.78;5071687;28;20221;-80
2021/11/04 03:26:03;;;;;;;1.47;1.37;;;;;;;3.32;91.19;94060.03;5072304;28;20272;-80
2021/11/04 03:28:30;;;;;;;1.30;1.30;;;;;;;3.31;91.05;94057.63;5055670;28;20669;-80
2021/11/04 03:30:56;;;;;;;3.10;1.20;;;;;;;3.31;91.36;94055.06;5055449;28;20206;-80
2021/11/04 03:33:21;;;;;;;1.40;1.30;;;;;;;3.29;91.41;94057.78;5059370;28;20205;-80
2021/11/04 03:35:47;;;;;;;0.90;0.90;;;;;;;3.26;91.61;94064.91;5083058;28;20174;-80
2021/11/04 03:38:13;;;;;;;1.33;1.23;;;;;;;3.28;91.72;94056.16;5075819;28;20178;-81
2021/11/04 03:40:39;;;;;;;1.50;1.40;;;;;;;3.31;91.58;94057.63;5075457;28;20245;-80
2021/11/04 03:43:05;;;;;;;1.50;1.40;;;;;;;3.29;91.46;94054.41;5075528;28;20173;-80
2021/11/04 03:45:31;;;;;;;1.60;1.50;;;;;;;3.25;91.70;94055.63;5074617;28;20177;-81
2021/11/04 03:47:57;;;;;;;1.53;1.43;;;;;;;3.26;91.89;94052.09;5075106;28;20679;-80
2021/11/04 03:50:26;;;;;;;1.60;1.50;;;;;;;3.21;91.45;94042.28;5091975;28;20229;-81
2021/11/04 03:52:52;;;;;;;2.77;1.20;;;;;;;3.25;91.54;94047.91;5091776;28;20182;-81
2021/11/04 03:55:18;;;;;;;1.50;1.40;;;;;;;3.25;91.78;94048.72;5058133;28;20189;-80
2021/11/04 03:57:45;;;;;;;1.57;1.33;;;;;;;3.23;91.65;94042.94;5091875;28;20257;-81
2021/11/04 04:00:13;;;;;;;1.40;1.30;;;;;;;3.15;91.26;94049.72;5074814;28;20613;-81
2021/11/04 04:02:39;;;;;;;1.40;1.30;;;;;;;3.17;91.51;94046.03;5092130;28;20191;-81
2021/11/04 04:05:05;;;;;;;2.70;1.33;;;;;;;3.18;92.10;94041.72;5064511;28;20195;-81
2021/11/04 04:07:31;;;;;;;1.10;1.10;;;;;;;3.15;91.58;94045.38;5071484;28;20175;-82
2021/11/04 04:09:57;;;;;;;1.70;1.60;;;;;;;3.12;92.04;94049.03;5071396;28;20192;-81
2021/11/04 04:12:23;;;;;;;1.47;1.37;;;;;;;3.16;92.20;94049.56;5054533;28;20238;-80
2021/11/04 04:14:48;;;;;;;1.50;1.40;;;;;;;3.15;92.50;94040.25;5054019;28;20206;-80
2021/11/04 04:17:14;;;;;;;1.43;1.33;;;;;;;3.14;92.55;94046.34;5071294;28;20179;-81
2021/11/04 04:19:39;;;;;;;2.30;1.33;;;;;;;3.19;92.45;94044.16;5071204;28;20200;-80
2021/11/04 04:22:04;;;;;;;2.80;1.60;;;;;;;3.24;92.25;94052.25;5054510;28;20196;-80
2021/11/04 04:24:31;;;;;;;1.40;1.20;;;;;;;3.23;91.74;94049.81;5070565;28;20173;-82
2021/11/04 04:26:56;;;;;;;1.00;1.00;;;;;;;3.07;91.08;94060.66;5054747;28;20174;-80
2021/11/04 04:29:22;;;;;;;1.70;1.60;;;;;;;3.13;91.33;94060.91;5070992;28;20538;-80
2021/11/04 04:31:47;;;;;;;1.40;1.30;;;;;;;3.13;91.44;94057.53;5071267;28;20184;-80
2021/11/04 04:34:12;;;;;;;1.57;1.47;;;;;;;3.16;91.89;94064.16;5078046;28;20270;-81
2021/11/04 04:36:38;;;;;;;2.63;1.60;;;;;;;3.17;91.74;94071.69;5074385;28;20187;-81
2021/11/04 04:39:03;;;;;;;1.40;1.30;;;;;;;3.19;92.11;94063.88;5091525;28;20196;-80
2021/11/04 04:41:28;;;;;;;1.50;1.40;;;;;;;3.17;92.03;94065.75;5074542;28;20204;-81
2021/11/04 04:43:54;;;;;;;1.50;1.40;;;;;;;3.21;91.82;94074.81;5073784;28;20563;-80
2021/11/04 04:46:21;;;;;;;1.40;1.30;;;;;;;3.12;91.52;94068.75;5074582;28;20560;-80
2021/11/04 04:48:46;;;;;;;1.40;1.30;;;;;;;3.16;92.24;94072.66;5083472;28;20556;-80
2021/11/04 04:51:12;;;;;;;1.40;1.30;;;;;;;3.16;92.26;94070.09;5071290;28;20179;-82
2021/11/04 04:53:37;;;;;;;1.70;1.60;;;;;;;3.24;92.15;94071.97;5090231;28;20231;-81
2021/11/04 04:56:03;;;;;;;1.20;1.20;;;;;;;3.25;91.69;94076.13;5074274;28;20585;-80
2021/11/04 04:58:28;;;;;;;1.50;1.40;;;;;;;3.26;91.85;94072.63;5091143;28;20206;-81
2021/11/04 05:00:53;;;;;;;1.50;1.40;;;;;;;3.24;91.93;94080.47;5091151;28;20183;-81
2021/11/04 05:03:19;;;;;;;1.50;1.40;;;;;;;3.15;92.23;94073.59;5071002;28;20181;-80
2021/11/04 05:05:44;;;;;;;1.67;1.57;;;;;;;3.18;92.06;94088.72;5066877;28;20182;-81
2021/11/04 05:08:10;;;;;;;1.47;1.37;;;;;;;3.22;92.65;94084.13;5071461;28;20223;-82
2021/11/04 05:10:35;;;;;;;1.67;1.57;;;;;;;3.20;92.58;94091.16;5054001;28;20199;-81
2021/11/04 05:13:00;;;;;;;1.70;1.60;;;;;;;3.26;92.68;94095.72;5072933;28;20185;-81
2021/11/04 05:15:26;;;;;;;1.43;1.33;;;;;;;3.23;92.74;94093.44;5077900;28;20563;-80
2021/11/04 05:17:51;;;;;;;1.60;1.50;;;;;;;3.24;92.81;94098.41;5054800;28;20613;-81
2021/11/04 05:20:16;;;;;;;1.37;1.27;;;;;;;3.19;92.46;94104.94;5053616;28;20633;-81
2021/11/04 05:22:42;;;;;;;1.30;1.20;;;;;;;3.13;92.61;94104.53;5053625;28;20184;-81
2021/11/04 05:25:07;;;;;;;2.13;1.30;;;;;;;3.20;92.36;94106.53;5052426;28;20532;-81
2021/11/04 05:27:33;;;;;;;1.67;1.20;;;;;;;3.14;92.35;94110.47;5070476;28;20714;-81
2021/11/04 05:29:59;;;;;;;2.03;1.27;;;;;;;3.22;92.22;94109.78;5070473;28;20227;-80
2021/11/04 05:32:24;;;;;;;2.23;1.10;;;;;;;3.20;92.80;94120.19;5070381;28;20212;-80
2021/11/04 05:34:49;;;;;;;2.23;1.10;;;;;;;3.22;92.72;94109.78;5060297;28;20360;-80
2021/11/04 05:37:15;;;;;;;1.10;1.00;;;;;;;3.17;92.45;94109.38;5053669;28;20655;-81
2021/11/04 05:39:40;;;;;;;1.17;1.07;;;;;;;3.27;92.58;94111.00;5053401;28;20203;-80
2021/11/04 05:42:07;;;;;;;0.80;0.80;;;;;;;3.17;91.98;94111.94;5074175;28;20179;-80
2021/11/04 05:44:35;;;;;;;0.83;0.83;;;;;;;3.24;91.54;94118.94;5074182;28;20647;-80
2021/11/04 05:47:00;;;;;;;0.80;0.80;;;;;;;3.10;91.90;94115.06;5057752;28;20221;-82
2021/11/04 05:49:26;;;;;;;1.80;1.03;;;;;;;3.21;92.04;94123.56;5074276;28;20197;-80
2021/11/04 05:51:51;;;;;;;0.73;0.73;;;;;;;3.17;92.36;94138.38;5074343;28;20230;-81
2021/11/04 05:54:16;;;;;;;0.83;0.83;;;;;;;3.27;92.24;94138.38;5056396;28;20698;-80
2021/11/04 05:56:41;;;;;;;0.80;0.80;;;;;;;3.21;91.83;94142.31;5072769;28;20173;-81
2021/11/04 05:59:07;;;;;;;1.37;0.80;;;;;;;3.28;92.08;94143.38;5073731;28;20200;-80
2021/11/04 06:01:32;;;;;;;1.47;0.60;;;;;;;3.22;92.24;94145.69;5074219;28;20208;-81
2021/11/04 06:03:58;;;;;;;0.80;0.80;;;;;;;3.17;92.13;94146.09;5073050;28;20272;-81
2021/11/04 06:06:23;;;;;;;0.80;0.80;;;;;;;3.23;92.15;94150.69;5078140;28;20197;-81
2021/11/04 06:08:48;;;;;;;0.80;0.80;;;;;;;3.28;92.27;94155.41;5072301;28;20230;-82
2021/11/04 06:11:13;;;;;;;0.80;0.80;;;;;;;3.29;93.06;94157.03;5075927;28;20180;-81
2021/11/04 06:13:39;;;;;;;0.70;0.70;;;;;;;3.27;92.74;94164.03;5084025;28;20262;-80
2021/11/04 06:16:12;;;;;;;1.60;0.80;;;;;;;3.26;92.69;94167.53;5073973;28;20249;-81
2021/11/04 06:18:37;;;;;;;0.90;0.90;;;;;;;3.27;92.77;94179.41;5057748;28;20169;-80
2021/11/04 06:21:02;;;;;;;1.00;0.80;;;;;;;3.31;93.05;94175.66;5058367;28;20569;-80
2021/11/04 06:23:27;;;;;;;0.70;0.70;;;;;;;3.33;93.27;94189.97;5061792;28;20189;-80
2021/11/04 06:25:53;;;;;;;1.03;0.90;;;;;;;3.31;92.55;94186.72;5083175;28;20189;-80
2021/11/04 06:28:18;;;;;;;0.73;0.73;;;;;;;3.28;92.86;94183.63;5056911;28;20611;-80
2021/11/04 06:30:43;;;;;;;1.27;1.17;;;;;;;3.32;93.14;94184.97;5073351;28;20204;-80
2021/11/04 06:33:08;;;;;;;1.10;1.00;;;;;;;3.42;92.85;94188.31;5080133;28;20184;-83
2021/11/04 06:35:34;;;;;;;1.43;1.07;;;;;;;3.34;92.63;94189.00;5059797;28;20208;-81
2021/11/04 06:37:59;;;;;;;2.87;1.37;;;;;;;3.29;92.75;94192.94;5056571;28;20692;-82
2021/11/04 06:40:27;;;;;;;1.60;1.50;;;;;;;3.34;93.05;94204.41;5073016;28;20234;-83
2021/11/04 06:42:52;;;;;;;3.67;2.33;;;;;;;3.33;92.49;94200.22;5058375;28;20177;-81
2021/11/04 06:45:18;;;;;;;3.40;2.50;;;;;;;3.29;92.24;94205.78;5057602;28;20830;-80
2021/11/04 06:47:52;;;;;;;2.33;2.00;;;;;;;3.34;92.67;94206.16;5056140;28;20180;-82
2021/11/04 06:50:20;;;;;;;1.70;1.60;;;;;;;3.31;92.08;94211.56;5059587;28;20234;-82
2021/11/04 06:53:00;;;;;;;1.47;1.37;;;;;;;3.34;92.05;94206.97;5091789;28;20263;-81
2021/11/04 06:55:26;;;;;;;1.53;1.43;;;;;;;3.28;91.49;94211.84;5092726;28;20175;-84
2021/11/04 06:57:55;;;;;;;1.57;1.47;;;;;;;3.38;91.28;94217.78;5093354;28;20245;-84
2021/11/04 07:00:21;;;;;;;1.63;1.53;;;;;;;3.37;91.08;94221.31;5092190;28;20209;-85
2021/11/04 07:02:51;;;;;;;1.60;1.50;;;;;;;3.36;91.05;94224.81;5072294;28;20185;-83
2021/11/04 07:05:18;;;;;;;2.27;2.13;;;;;;;3.37;91.10;94229.00;5080415;28;20695;-82
2021/11/04 07:07:46;;;;;;;1.87;1.77;;;;;;;3.46;91.13;94229.94;5063810;28;20264;-83
2021/11/04 07:10:12;;;;;;;3.07;1.90;;;;;;;3.43;91.47;94236.13;5081863;28;20207;-82
2021/11/04 07:12:42;;;;;;;2.43;2.23;;;;;;;3.48;91.23;94236.56;5078095;28;20183;-82
2021/11/04 07:15:08;;;;;;;1.97;1.70;;;;;;;3.55;90.79;94236.81;5074253;28;20197;-82
2021/11/04 07:17:33;;;;;;;1.87;1.77;;;;;;;3.50;91.02;94249.25;5073835;28;20179;-82
2021/11/04 07:19:59;;;;;;;1.80;1.70;;;;;;;3.50;91.09;94255.19;5067329;28;20253;-82
2021/11/04 07:22:33;;;;;;;2.00;1.50;;;;;;;3.57;91.32;94253.69;5064480;28;20705;-81
2021/11/04 07:25:10;;;;;;;2.27;1.90;;;;;;;3.57;90.82;94253.69;5062537;28;20197;-82
2021/11/04 07:27:49;;;;;;;1.93;1.80;;;;;;;3.49;91.43;94261.25;5089295;28;20169;-81
2021/11/04 07:30:17;;;;;;;2.23;2.03;;;;;;;3.46;91.57;94266.69;5066774;28;20280;-86
2021/11/04 07:32:48;;;;;;;1.80;1.70;;;;;;;3.58;91.52;94259.63;5084417;28;20218;-82
2021/11/04 07:35:15;;;;;;;1.93;1.77;;;;;;;3.59;91.41;94269.75;5065102;28;20218;-80
2021/11/04 07:37:42;;;;;;;2.13;1.93;;;;;;;3.66;91.43;94275.16;5092344;28;20177;-80
2021/11/04 07:40:08;;;;;;;1.70;1.60;;;;;;;3.62;91.24;94277.22;5082180;28;20204;-83
2021/11/04 07:42:33;;;;;;;2.27;1.70;;;;;;;3.66;91.51;94288.00;5085883;28;20604;-82
2021/11/04 07:44:59;;;;;;;2.10;1.87;;;;;;;3.67;91.42;94290.44;5090462;28;20178;-81
2021/11/04 07:47:24;;;;;;;1.67;1.57;;;;;;;3.65;91.58;94294.91;5070053;28;20318;-81
2021/11/04 07:49:50;;;;;;;1.67;1.57;;;;;;;3.69;91.86;94301.38;5055979;28;20193;-81
2021/11/04 07:52:16;;;;;;;1.63;1.50;;;;;;;3.63;92.34;94307.06;5073607;28;20185;-80
2021/11/04 07:54:41;;;;;;;1.40;1.30;;;;;;;3.65;92.08;94302.59;5086115;28;20210;-80
2021/11/04 07:57:08;;;;;;;1.13;1.03;;;;;;;3.68;92.20;94304.09;5073651;28;20184;-79
2021/11/04 07:59:33;;;;;;;1.50;1.40;;;;;;;3.60;92.43;94309.88;5068161;28;20204;-79
2021/11/04 08:02:00;;;;;;;1.80;1.27;;;;;;;3.72;92.42;94314.91;5080586;28;20697;-81
2021/11/04 08:04:28;;;;;;;0.83;0.73;;;;;;;3.67;92.17;94318.69;5083813;28;20183;-80
2021/11/04 08:06:54;;;;;;;1.00;0.97;;;;;;;3.77;92.14;94317.84;5087407;28;20226;-81
2021/11/04 08:09:20;;;;;;;0.80;0.80;;;;;;;3.73;92.54;94326.78;5058778;28;20209;-80
2021/11/04 08:11:45;;;;;;;1.00;0.90;;;;;;;3.73;92.55;94325.03;5068934;28;20180;-81
2021/11/04 08:14:11;;;;;;;1.87;1.33;;;;;;;3.76;92.89;94332.47;5071423;28;20614;-81
2021/11/04 08:16:36;;;;;;;1.67;1.57;;;;;;;3.67;93.52;94330.69;5086542;28;20180;-82
2021/11/04 08:19:01;;;;;;;1.23;1.13;;;;;;;3.73;93.23;94325.03;5073012;28;20212;-82
2021/11/04 08:21:27;;;;;;;1.00;1.00;;;;;;;3.69;93.22;94339.06;5071697;28;20217;-82
2021/11/04 08:23:52;;;;;;;1.23;0.97;;;;;;;3.75;93.62;94337.72;5072189;28;20226;-83
2021/11/04 08:26:18;;;;;;;1.43;1.33;;;;;;;3.80;92.86;94340.69;5084244;28;20192;-83
2021/11/04 08:28:43;;;;;;;2.90;1.50;;;;;;;3.70;92.88;94333.78;5074421;28;20669;-84
2021/11/04 08:31:08;;;;;;;1.50;1.40;;;;;;;3.77;92.97;94346.09;5072841;28;20203;-81
2021/11/04 08:33:34;;;;;;;1.17;1.17;;;;;;;3.78;93.35;94350.28;5065001;28;20211;-81
2021/11/04 08:35:59;;;;;;;1.20;1.10;;;;;;;3.90;93.19;94356.94;5065163;28;20195;-82
2021/11/04 08:38:24;;;;;;;0.90;0.90;;;;;;;3.91;92.55;94361.94;5068079;28;20180;-81
2021/11/04 08:40:50;;;;;;;1.60;1.00;;;;;;;3.92;92.96;94363.53;5075439;28;20213;-82
2021/11/04 08:43:15;;;;;;;1.30;1.10;;;;;;;3.77;92.89;94364.88;5069520;28;20214;-83
2021/11/04 08:45:40;;;;;;;1.00;0.90;;;;;;;3.79;92.84;94365.56;5071775;28;20184;-82
2021/11/04 08:48:06;;;;;;;1.00;1.00;;;;;;;3.81;92.74;94362.88;5072569;28;20180;-80
2021/11/04 08:50:31;;;;;;;0.90;0.90;;;;;;;3.83;92.76;94371.25;5055260;28;20212;-83
2021/11/04 08:52:56;;;;;;;1.40;1.17;;;;;;;3.86;92.44;94376.09;5056372;28;20525;-83
2021/11/04 08:55:22;;;;;;;1.33;1.23;;;;;;;3.88;91.87;94379.34;5055209;28;20247;-82
2021/11/04 08:57:48;;;;;;;1.93;1.30;;;;;;;3.85;92.06;94382.19;5072668;28;20689;-81
2021/11/04 09:00:14;;;;;;;1.90;1.50;;;;;;;3.85;91.66;94384.75;5071961;28;20195;-81
2021/11/04 09:02:39;;;;;;;1.40;1.30;;;;;;;3.97;91.95;94394.75;5054947;28;20184;-82
2021/11/04 09:05:08;;;;;;;1.93;1.50;;;;;;;4.02;91.70;94391.78;5075202;28;20190;-81
2021/11/04 09:07:38;;;;;;;1.50;1.37;;;;;;;3.99;91.34;94397.22;5073480;28;20177;-83
2021/11/04 09:10:06;;;;;;;1.90;1.70;;;;;;;4.06;90.66;94407.72;5055807;28;20193;-82
2021/11/04 09:12:31;;;;;;;2.57;1.60;;;;;;;3.93;90.92;94406.25;5089137;28;20180;-81
2021/11/04 09:14:56;;;;;;;1.97;1.57;;;;;;;3.96;90.44;94405.16;5073404;28;20199;-81
2021/11/04 09:17:22;;;;;;;1.40;1.20;;;;;;;3.80;90.44;94407.44;5059694;28;20619;-83
2021/11/04 09:19:47;;;;;;;1.60;1.50;;;;;;;3.85;90.22;94413.00;5068566;28;20208;-81
2021/11/04 09:22:13;;;;;;;2.60;1.53;;;;;;;3.85;90.45;94413.00;5084034;28;20184;-82
2021/11/04 09:24:39;;;;;;;1.33;1.23;;;;;;;3.89;90.56;94422.91;5075141;28;20226;-78
2021/11/04 09:27:04;;;;;;;2.40;1.70;;;;;;;3.88;90.63;94417.88;5076099;28;20212;-80
2021/11/04 09:29:33;;;;;;;2.70;1.50;;;;;;;3.91;90.98;94427.91;5058186;28;20207;-81
2021/11/04 09:32:00;;;;;;;2.90;1.93;;;;;;;3.88;90.87;94428.13;5079156;28;20211;-82
2021/11/04 09:34:28;;;;;;;3.03;2.47;;;;;;;3.92;91.04;94435.47;5070564;28;20272;-82
2021/11/04 09:36:53;;;;;;;2.83;2.30;;;;;;;3.93;91.45;94443.97;5083884;28;20243;-80
2021/11/04 09:39:19;;;;;;;3.50;2.57;;;;;;;3.84;91.58;94442.22;5077251;28;20196;-80
2021/11/04 09:41:44;;;;;;;3.83;2.70;;;;;;;3.99;92.11;94448.59;5083801;28;20218;-82
2021/11/04 09:44:10;;;;;;;3.77;3.27;;;;;;;3.89;92.22;94450.34;5065427;28;20653;-81
2021/11/04 09:46:37;;;;;;;4.37;3.20;;;;;;;3.94;92.33;94458.44;5094034;28;20189;-81
2021/11/04 09:49:03;;;;;;;5.07;3.60;;;;;;;4.05;92.63;94463.44;5078686;28;20236;-83
2021/11/04 09:51:28;;;;;;;4.13;3.23;;;;;;;3.98;92.80;94467.50;5093886;28;20276;-83
2021/11/04 09:53:53;;;;;;;5.40;3.93;;;;;;;4.01;92.37;94477.50;5074721;28;20306;-83
2021/11/04 09:56:19;;;;;;;5.53;4.43;;;;;;;3.98;92.63;94470.91;5072510;28;20762;-83
2021/11/04 09:58:44;;;;;;;5.63;5.03;;;;;;;3.91;92.91;94472.38;5070834;28;20177;-82
2021/11/04 10:01:24;;;;;;;5.23;4.57;;;;;;;3.93;92.13;94485.06;5092219;28;20599;-83
2021/11/04 10:03:50;;;;;;;6.07;5.10;;;;;;;4.00;92.45;94486.16;5057907;28;20200;-83
2021/11/04 10:06:24;;;;;;;5.50;4.47;;;;;;;4.00;92.45;94491.31;5089109;28;20277;-82
2021/11/04 10:08:58;;;;;;;5.30;4.00;;;;;;;4.13;91.61;94491.03;5070121;28;20682;-81
2021/11/04 10:11:33;;;;;;;4.40;4.00;;;;;;;4.18;91.48;94499.16;5076635;28;20638;-81
2021/11/04 10:14:01;;;;;;;6.43;5.33;;;;;;;4.02;92.25;94496.31;5062491;28;20913;-79
2021/11/04 10:16:27;;;;;;;6.73;5.37;;;;;;;4.10;92.00;94492.13;5075435;28;20171;-83
2021/11/04 10:18:52;;;;;;;7.53;5.73;;;;;;;4.00;92.80;94499.00;5075181;28;20288;-83
2021/11/04 10:21:26;;;;;;;7.90;6.30;;;;;;;3.98;92.87;94504.28;5074362;28;20212;-82
2021/11/04 10:23:52;;;;;;;9.97;6.83;;;;;;;4.04;93.02;94505.50;5065259;28;20185;-82
2021/11/04 10:26:20;;;;;;;7.80;6.57;;;;;;;4.13;92.81;94522.69;5057877;28;20184;-83
2021/11/04 10:28:48;;;;;;;9.20;6.60;;;;;;;3.96;92.49;94526.69;5070555;28;20191;-83
2021/11/04 10:31:18;;;;;;;7.83;6.13;;;;;;;4.06;92.43;94531.03;5077268;28;20188;-82
2021/11/04 10:33:46;;;;;;;8.87;7.00;;;;;;;4.08;92.24;94537.69;5067815;28;20205;-81
2021/11/04 10:36:15;;;;;;;9.27;6.93;;;;;;;4.03;92.79;94523.63;5082814;28;20233;-80
2021/11/04 10:38:46;;;;;;;10.47;7.33;;;;;;;4.14;92.26;94533.75;5074204;28;20177;-81
2021/11/04 10:41:27;;;;;;;7.80;6.83;;;;;;;4.14;92.07;94536.34;5064664;28;20175;-80
2021/11/04 10:44:15;;;;;;;10.70;7.67;;;;;;;4.08;92.45;94540.28;5089846;28;20745;-82
2021/11/04 10:46:48;;;;;;;9.20;7.20;;;;;;;4.18;91.89;94541.09;5063029;28;20266;-83
2021/11/04 10:49:14;;;;;;;11.43;8.03;;;;;;;4.10;92.10;94548.66;5091928;28;20291;-81
2021/11/04 10:51:40;;;;;;;11.73;9.13;;;;;;;4.17;92.53;94554.06;5057754;28;20185;-82
2021/11/04 10:54:15;;;;;;;17.77;11.13;;;;;;;4.05;92.65;94560.25;5083568;28;20259;-82
2021/11/04 10:56:45;;;;;;;15.80;11.77;;;;;;;4.01;93.34;94551.19;5064073;28;20183;-82
2021/11/04 10:59:16;;;;;;;16.93;12.93;;;;;;;4.00;93.06;94565.00;5078702;28;20272;-81
2021/11/04 11:01:50;;;;;;;15.03;12.00;;;;;;;3.92;93.54;94563.06;5071321;28;20204;-81
2021/11/04 11:04:17;;;;;;;14.83;12.47;;;;;;;4.10;93.57;94566.63;5083208;28;20225;-81
2021/11/04 11:06:46;;;;;;;18.03;12.43;;;;;;;4.07;92.89;94563.53;5075140;28;20247;-81
2021/11/04 11:09:17;;;;;;;15.27;12.67;;;;;;;4.02;93.75;94569.03;5060536;28;20202;-81
2021/11/04 11:11:44;;;;;;;18.53;12.93;;;;;;;4.01;92.47;94569.19;5076095;28;20176;-81
2021/11/04 11:14:11;;;;;;;20.07;14.73;;;;;;;4.04;93.25;94577.44;5082435;28;20201;-82
2021/11/04 11:16:38;;;;;;;20.03;15.27;;;;;;;3.98;93.47;94586.50;5058678;28;20184;-83
2021/11/04 11:19:04;;;;;;;21.53;14.77;;;;;;;3.94;93.28;94590.25;5077059;28;20216;-83
2021/11/04 11:21:35;;;;;;;17.87;14.77;;;;;;;3.93;92.91;94591.19;5076951;28;20176;-82
2021/11/04 11:24:01;;;;;;;18.40;14.13;;;;;;;3.83;93.10;94604.94;5073433;28;20302;-82
2021/11/04 11:26:27;;;;;;;17.63;14.77;;;;;;;3.89;93.34;94596.72;5062099;28;20219;-82
2021/11/04 11:28:57;;;;;;;18.80;14.97;;;;;;;3.84;93.70;94606.56;5057394;28;20207;-81
2021/11/04 11:31:25;;;;;;;17.80;13.27;;;;;;;3.91;93.50;94615.38;5077200;28;20174;-82
2021/11/04 11:34:06;;;;;;;14.20;11.67;;;;;;;3.83;93.28;94617.78;5073021;28;20222;-82
2021/11/04 11:36:32;;;;;;;17.20;13.53;;;;;;;4.00;93.21;94612.03;5082668;28;20177;-82
2021/11/04 11:38:58;;;;;;;16.20;12.70;;;;;;;3.90;93.62;94626.63;5088263;28;20201;-81